Latest Coastal Weather Observations for Kiama

IDN60701

Issued at 7:35 pm EST Tuesday 16 September 2014 (issued every 10 minutes, with the page automatically refreshed every 10 minutes)

About coastal observations | Map of coastal stations | Coastal observations for NSW | Marine services | Other Formats
Station Details ID: 068242 Name: KIAMA (BOMBO HEADLAND) Lat: -34.65 Lon: 150.86 Height: 15.5 m
Data from the previous 72 hours. | See also: Recent months at Kiama
Date/Time
EST
Temp

°C
Wind Pressure Rain
since 9am
mm
Weather Cloud Vis
km
Sea
Height
m
Swell
Dir
 
Speed
knots
Gust
knots
hPa Trend Height
m
Period
s
Dir
16/07:30pm 16.7 N 6 8 - - 0.0 - - - - - - -
16/07:00pm 17.2 N 5 8 - - 0.0 - - - - - - -
16/06:30pm 17.6 NW 7 12 - - 0.0 - - - - - - -
16/06:00pm 18.4 WNW 8 15 - - 0.0 - - - - - - -
16/05:30pm 19.5 WNW 13 20 - - 0.0 - - - - - - -
16/05:00pm 20.6 WNW 10 18 - - 0.0 - - - - - - -
16/04:30pm 21.6 WNW 9 19 - - 0.0 - - - - - - -
16/04:00pm 22.2 WNW 9 15 - - 0.0 - - - - - - -
16/03:30pm 20.2 N 4 6 - - 0.0 - - - - - - -
16/03:00pm 18.4 N 11 20 - - 0.0 - - - - - - -
16/02:30pm 19.4 NNE 11 18 - - 0.0 - - - - - - -
16/02:00pm 20.1 NNE 14 21 - - 0.0 - - - - - - -
16/01:30pm 20.3 NNE 11 16 - - 0.0 - - - - - - -
16/01:00pm 18.9 NNE 11 15 - - 0.0 - - - - - - -
16/12:30pm 19.4 NNE 9 13 - - 0.0 - - - - - - -
16/12:00pm 19.6 N 6 9 - - 0.0 - - - - - - -
16/11:30am 19.2 NNE 8 12 - - 0.0 - - - - - - -
16/11:00am 19.1 N 10 13 - - 0.0 - - - - - - -
16/10:30am 18.1 NNE 9 14 - - 0.0 - - - - - - -
16/10:00am 18.4 N 10 15 - - 0.0 - - - - - - -
16/09:30am 18.2 N 6 10 - - 0.0 - - - - - - -
16/09:00am 18.1 N 11 18 - - 0.2 - - - - - - -
16/08:30am 18.2 N 7 12 - - 0.2 - - - - - - -
16/08:00am 16.6 NNW 5 8 - - 0.2 - - - - - - -
16/07:30am 15.9 NNW 4 7 - - 0.2 - - - - - - -
16/07:00am 15.3 N 3 4 - - 0.2 - - - - - - -
16/06:30am 14.9 N 2 4 - - 0.2 - - - - - - -
16/06:00am 15.2 WNW 6 8 - - 0.2 - - - - - - -
16/05:30am 15.1 WNW 6 8 - - 0.2 - - - - - - -
16/05:00am 15.3 N 4 7 - - 0.2 - - - - - - -
16/04:30am 15.3 N 4 7 - - 0.2 - - - - - - -
16/04:00am 15.0 NW 4 7 - - 0.2 - - - - - - -
16/03:30am 15.2 N 5 7 - - 0.2 - - - - - - -
16/03:00am 15.1 NNW 3 5 - - 0.2 - - - - - - -
16/02:30am 15.2 NNW 3 5 - - 0.2 - - - - - - -
16/02:00am 15.2 NNW 2 4 - - 0.2 - - - - - - -
16/01:30am 15.4 N 3 4 - - 0.2 - - - - - - -
16/01:00am 15.5 N 3 5 - - 0.2 - - - - - - -
16/12:30am 15.2 NW 4 5 - - 0.2 - - - - - - -
16/12:00am 15.4 NW 3 5 - - 0.0 - - - - - - -
 
Date/Time
EST
Temp

°C
Wind Pressure Rain
since 9am
mm
Weather Cloud Vis
km
Sea
Height
m
Swell
Dir
 
Speed
knots
Gust
knots
hPa Trend Height
m
Period
s
Dir
15/11:30pm 15.8 NNW 5 6 - - 0.0 - - - - - - -
15/11:00pm 16.1 NNW 4 6 - - 0.0 - - - - - - -
15/10:30pm 16.2 NNW 4 6 - - 0.0 - - - - - - -
15/10:00pm 16.4 NNW 4 6 - - 0.0 - - - - - - -
15/09:30pm 16.6 NNW 4 6 - - 0.0 - - - - - - -
15/09:00pm 16.9 N 7 15 - - 0.0 - - - - - - -
15/08:30pm 17.2 N 9 14 - - 0.0 - - - - - - -
15/08:00pm 17.2 N 9 13 - - 0.0 - - - - - - -
15/07:30pm 17.1 NNE 9 12 - - 0.0 - - - - - - -
15/07:00pm 17.1 N 9 13 - - 0.0 - - - - - - -
15/06:30pm 16.9 N 8 11 - - 0.0 - - - - - - -
15/06:00pm 16.9 NNE 7 10 - - 0.0 - - - - - - -
15/05:30pm 17.1 NNE 9 12 - - 0.0 - - - - - - -
15/05:00pm 17.4 NNE 8 11 - - 0.0 - - - - - - -
15/04:30pm 17.7 NNE 8 10 - - 0.0 - - - - - - -
15/04:00pm 17.9 NNE 7 10 - - 0.0 - - - - - - -
15/03:30pm 19.0 NE 8 10 - - 0.0 - - - - - - -
15/03:00pm 19.2 NE 8 9 - - 0.0 - - - - - - -
15/02:30pm 19.2 NE 8 10 - - 0.0 - - - - - - -
15/02:00pm 19.5 NE 6 8 - - 0.0 - - - - - - -
15/01:30pm 19.9 NE 5 8 - - 0.0 - - - - - - -
15/01:00pm 19.7 NE 6 9 - - 0.0 - - - - - - -
15/12:30pm 19.6 NE 6 9 - - 0.0 - - - - - - -
15/12:00pm 19.7 ENE 5 8 - - 0.0 - - - - - - -
15/11:30am 19.1 ENE 7 9 - - 0.0 - - - - - - -
15/11:00am 19.1 ENE 6 9 - - 0.0 - - - - - - -
15/10:30am 19.0 ENE 5 7 - - 0.0 - - - - - - -
15/10:00am 18.7 ENE 5 7 - - 0.0 - - - - - - -
15/09:30am 17.9 ENE 4 6 - - 0.0 - - - - - - -
15/09:00am 18.7 NE 3 4 - - 0.0 - - - - - - -
15/08:30am 17.3 N 2 3 - - 0.0 - - - - - - -
15/08:00am 15.9 WSW 1 2 - - 0.0 - - - - - - -
15/07:30am 15.3 W 3 4 - - 0.0 - - - - - - -
15/07:00am 13.5 W 4 6 - - 0.0 - - - - - - -
15/06:30am 13.6 W 4 6 - - 0.0 - - - - - - -
15/06:00am 13.0 W 5 6 - - 0.0 - - - - - - -
15/05:30am 12.9 W 5 7 - - 0.0 - - - - - - -
15/05:00am 13.1 WSW 3 4 - - 0.0 - - - - - - -
15/04:30am 13.6 W 3 4 - - 0.0 - - - - - - -
15/04:00am 14.1 WSW 3 4 - - 0.0 - - - - - - -
15/03:30am 13.8 WSW 3 4 - - 0.0 - - - - - - -
15/03:00am 13.1 W 3 4 - - 0.0 - - - - - - -
15/02:30am 13.4 W 4 5 - - 0.0 - - - - - - -
15/02:00am 13.4 SW 3 5 - - 0.0 - - - - - - -
15/01:30am 13.6 WSW 3 4 - - 0.0 - - - - - - -
15/01:00am 13.9 WSW 3 4 - - 0.0 - - - - - - -
15/12:30am 14.9 WSW 4 4 - - 0.0 - - - - - - -
15/12:00am 15.3 SW 4 5 - - 0.0 - - - - - - -
 
Date/Time
EST
Temp

°C
Wind Pressure Rain
since 9am
mm
Weather Cloud Vis
km
Sea
Height
m
Swell
Dir
 
Speed
knots
Gust
knots
hPa Trend Height
m
Period
s
Dir
14/11:30pm 14.7 SW 4 5 - - 0.0 - - - - - - -
14/11:00pm 14.9 SW 4 7 - - 0.0 - - - - - - -
14/10:30pm 15.6 SSW 5 6 - - 0.0 - - - - - - -
14/10:00pm 15.7 SSW 5 7 - - 0.0 - - - - - - -
14/09:30pm 15.7 SSW 7 9 - - 0.0 - - - - - - -
14/09:00pm 15.3 SW 6 8 - - 0.0 - - - - - - -
14/08:30pm 15.4 SSW 6 8 - - 0.0 - - - - - - -
14/08:00pm 15.7 SSW 8 10 - - 0.0 - - - - - - -
14/07:30pm 15.9 SSW 8 10 - - 0.0 - - - - - - -
14/07:00pm 16.3 S 11 13 - - 0.0 - - - - - - -
14/06:30pm 16.2 S 11 13 - - 0.0 - - - - - - -
14/06:00pm 16.3 S 12 17 - - 0.0 - - - - - - -
14/05:30pm 16.3 S 13 17 - - 0.0 - - - - - - -
14/05:00pm 16.4 S 12 17 - - 0.0 - - - - - - -
14/04:30pm 16.7 S 12 16 - - 0.0 - - - - - - -
14/04:00pm 16.8 S 12 16 - - 0.0 - - - - - - -
14/03:30pm 16.9 S 13 16 - - 0.0 - - - - - - -
14/03:00pm 16.8 SSE 14 16 - - 0.0 - - - - - - -
14/02:30pm 16.8 SSE 14 16 - - 0.0 - - - - - - -
14/02:00pm 16.9 S 14 17 - - 0.0 - - - - - - -
14/01:30pm 16.9 SSE 13 15 - - 0.0 - - - - - - -
14/01:00pm 17.0 SSE 12 15 - - 0.0 - - - - - - -
14/12:30pm 17.3 S 14 16 - - 0.0 - - - - - - -
14/12:00pm 17.1 S 12 15 - - 0.0 - - - - - - -
14/11:30am 17.0 S 12 16 - - 0.0 - - - - - - -
14/11:00am 18.0 SSE 10 13 - - 0.0 - - - - - - -
14/10:30am 18.3 SE 7 9 - - 0.0 - - - - - - -
14/10:00am 18.2 SE 5 6 - - 0.0 - - - - - - -
14/09:30am 17.9 E 2 4 - - 0.0 - - - - - - -
14/09:00am 17.6 ESE 3 5 - - 0.0 - - - - - - -
14/08:30am 17.0 CALM 0 2 - - 0.0 - - - - - - -
14/08:00am 16.1 CALM 0 0 - - 0.0 - - - - - - -
14/07:30am 15.5 SSW 2 3 - - 0.0 - - - - - - -
14/07:00am 14.6 NW 1 3 - - 0.0 - - - - - - -
14/06:30am 13.6 WNW 3 5 - - 0.0 - - - - - - -
14/06:00am 14.2 NW 7 9 - - 0.0 - - - - - - -
14/05:30am 14.4 NW 6 8 - - 0.0 - - - - - - -
14/05:00am 14.2 NNW 6 7 - - 0.0 - - - - - - -
14/04:30am 14.1 NW 6 7 - - 0.0 - - - - - - -
14/04:00am 14.5 NW 6 8 - - 0.0 - - - - - - -
14/03:30am 14.1 WNW 5 7 - - 0.0 - - - - - - -
14/03:00am 13.7 WNW 4 6 - - 0.0 - - - - - - -
14/02:30am 13.6 NW 4 6 - - 0.0 - - - - - - -
14/02:00am 14.3 NNW 6 8 - - 0.0 - - - - - - -
14/01:30am 14.3 NNW 5 7 - - 0.0 - - - - - - -
14/01:00am 14.2 NNW 5 7 - - 0.0 - - - - - - -
14/12:30am 14.4 NNW 6 8 - - 0.0 - - - - - - -
14/12:00am 14.3 NW 6 8 - - 0.0 - - - - - - -
 
Date/Time
EST
Temp

°C
Wind Pressure Rain
since 9am
mm
Weather Cloud Vis
km
Sea
Height
m
Swell
Dir
 
Speed
knots
Gust
knots
hPa Trend Height
m
Period
s
Dir
13/11:30pm 14.2 NW 6 8 - - 0.0 - - - - - - -
13/11:00pm 14.1 NW 6 7 - - 0.0 - - - - - - -
13/10:30pm 14.1 WNW 6 7 - - 0.0 - - - - - - -
13/10:00pm 14.0 WNW 6 8 - - 0.0 - - - - - - -
13/09:30pm 14.1 NW 5 6 - - 0.0 - - - - - - -
13/09:00pm 14.4 NW 5 6 - - 0.0 - - - - - - -
13/08:30pm 15.0 NW 4 5 - - 0.0 - - - - - - -
13/08:00pm 15.2 NW 5 7 - - 0.0 - - - - - - -

Other Formats:

Comma delimited format used in spreadsheet applications
http://www.bom.gov.au/fwo/IDN60701/IDN60701.95749.axf

JavaScript Object Notation format (JSON) in row-major order
http://www.bom.gov.au/fwo/IDN60701/IDN60701.95749.json